sensor_id;sensor_type;location;lat;lon;timestamp;P1;durP1;ratioP1;P2;durP2;ratioP2
6809;SDS011;3443;48.812;9.112;2022-12-07T00:01:33;6.60;;;6.00;;
6809;SDS011;3443;48.812;9.112;2022-12-07T00:04:01;6.63;;;6.03;;
6809;SDS011;3443;48.812;9.112;2022-12-07T00:06:32;6.53;;;5.93;;
6809;SDS011;3443;48.812;9.112;2022-12-07T00:08:59;7.35;;;6.65;;
6809;SDS011;3443;48.812;9.112;2022-12-07T00:11:25;6.78;;;6.22;;
6809;SDS011;3443;48.812;9.112;2022-12-07T00:13:51;7.90;;;6.35;;
6809;SDS011;3443;48.812;9.112;2022-12-07T00:16:18;6.55;;;5.95;;
6809;SDS011;3443;48.812;9.112;2022-12-07T00:18:45;6.55;;;5.80;;
6809;SDS011;3443;48.812;9.112;2022-12-07T00:21:12;7.43;;;6.47;;
6809;SDS011;3443;48.812;9.112;2022-12-07T00:23:40;6.30;;;5.73;;
6809;SDS011;3443;48.812;9.112;2022-12-07T00:26:11;6.50;;;6.00;;
6809;SDS011;3443;48.812;9.112;2022-12-07T00:28:51;7.80;;;7.03;;
6809;SDS011;3443;48.812;9.112;2022-12-07T00:31:19;6.80;;;6.20;;
6809;SDS011;3443;48.812;9.112;2022-12-07T00:33:47;6.55;;;5.85;;
6809;SDS011;3443;48.812;9.112;2022-12-07T00:36:14;7.18;;;6.53;;
6809;SDS011;3443;48.812;9.112;2022-12-07T00:38:42;9.90;;;6.83;;
6809;SDS011;3443;48.812;9.112;2022-12-07T00:41:14;7.80;;;7.10;;
6809;SDS011;3443;48.812;9.112;2022-12-07T00:43:45;8.57;;;7.77;;
6809;SDS011;3443;48.812;9.112;2022-12-07T00:46:12;8.50;;;7.15;;
6809;SDS011;3443;48.812;9.112;2022-12-07T00:48:39;7.88;;;7.07;;
6809;SDS011;3443;48.812;9.112;2022-12-07T00:51:05;8.60;;;6.95;;
6809;SDS011;3443;48.812;9.112;2022-12-07T00:53:33;7.90;;;7.20;;
6809;SDS011;3443;48.812;9.112;2022-12-07T00:56:04;9.53;;;7.77;;
6809;SDS011;3443;48.812;9.112;2022-12-07T00:58:33;7.53;;;6.83;;
6809;SDS011;3443;48.812;9.112;2022-12-07T01:01:00;7.47;;;6.78;;
6809;SDS011;3443;48.812;9.112;2022-12-07T01:03:27;7.35;;;6.65;;
6809;SDS011;3443;48.812;9.112;2022-12-07T01:05:53;7.53;;;6.80;;
6809;SDS011;3443;48.812;9.112;2022-12-07T01:08:20;8.15;;;7.35;;
6809;SDS011;3443;48.812;9.112;2022-12-07T01:10:46;8.10;;;7.30;;
6809;SDS011;3443;48.812;9.112;2022-12-07T01:13:12;7.33;;;6.67;;
6809;SDS011;3443;48.812;9.112;2022-12-07T01:15:39;8.57;;;7.10;;
6809;SDS011;3443;48.812;9.112;2022-12-07T01:18:08;7.13;;;6.43;;
6809;SDS011;3443;48.812;9.112;2022-12-07T01:20:34;7.95;;;7.18;;
6809;SDS011;3443;48.812;9.112;2022-12-07T01:22:59;7.80;;;7.07;;
6809;SDS011;3443;48.812;9.112;2022-12-07T01:25:25;8.20;;;7.30;;
6809;SDS011;3443;48.812;9.112;2022-12-07T01:27:51;7.97;;;7.27;;
6809;SDS011;3443;48.812;9.112;2022-12-07T01:30:16;8.18;;;7.43;;
6809;SDS011;3443;48.812;9.112;2022-12-07T01:32:42;7.63;;;6.93;;
6809;SDS011;3443;48.812;9.112;2022-12-07T01:35:08;8.75;;;6.72;;
6809;SDS011;3443;48.812;9.112;2022-12-07T01:37:37;7.63;;;6.83;;
6809;SDS011;3443;48.812;9.112;2022-12-07T01:40:06;8.15;;;7.32;;
6809;SDS011;3443;48.812;9.112;2022-12-07T01:42:33;7.55;;;6.85;;
6809;SDS011;3443;48.812;9.112;2022-12-07T01:47:43;8.50;;;7.07;;
6809;SDS011;3443;48.812;9.112;2022-12-07T01:50:17;8.17;;;7.17;;
6809;SDS011;3443;48.812;9.112;2022-12-07T01:52:43;8.17;;;7.30;;
6809;SDS011;3443;48.812;9.112;2022-12-07T01:55:11;8.15;;;7.35;;
6809;SDS011;3443;48.812;9.112;2022-12-07T01:57:41;8.13;;;6.82;;
6809;SDS011;3443;48.812;9.112;2022-12-07T02:00:10;8.05;;;7.15;;
6809;SDS011;3443;48.812;9.112;2022-12-07T02:02:38;7.45;;;6.75;;
6809;SDS011;3443;48.812;9.112;2022-12-07T02:05:09;8.95;;;7.35;;
6809;SDS011;3443;48.812;9.112;2022-12-07T02:07:36;8.80;;;7.30;;
6809;SDS011;3443;48.812;9.112;2022-12-07T02:10:16;7.95;;;6.90;;
6809;SDS011;3443;48.812;9.112;2022-12-07T02:12:44;7.72;;;7.03;;
6809;SDS011;3443;48.812;9.112;2022-12-07T02:15:13;7.57;;;6.87;;
6809;SDS011;3443;48.812;9.112;2022-12-07T02:23:12;8.23;;;7.43;;
6809;SDS011;3443;48.812;9.112;2022-12-07T02:26:17;8.03;;;7.23;;
6809;SDS011;3443;48.812;9.112;2022-12-07T02:29:08;7.23;;;6.53;;
6809;SDS011;3443;48.812;9.112;2022-12-07T02:31:41;7.97;;;7.17;;
6809;SDS011;3443;48.812;9.112;2022-12-07T02:34:21;7.70;;;7.00;;
6809;SDS011;3443;48.812;9.112;2022-12-07T02:36:52;8.87;;;7.33;;
6809;SDS011;3443;48.812;9.112;2022-12-07T02:39:27;7.70;;;7.00;;
6809;SDS011;3443;48.812;9.112;2022-12-07T02:42:31;7.53;;;6.70;;
6809;SDS011;3443;48.812;9.112;2022-12-07T02:45:20;7.70;;;6.87;;
6809;SDS011;3443;48.812;9.112;2022-12-07T02:47:48;7.80;;;7.00;;
6809;SDS011;3443;48.812;9.112;2022-12-07T02:50:17;8.60;;;7.10;;
6809;SDS011;3443;48.812;9.112;2022-12-07T02:52:46;7.67;;;6.90;;
6809;SDS011;3443;48.812;9.112;2022-12-07T02:55:12;8.70;;;7.43;;
6809;SDS011;3443;48.812;9.112;2022-12-07T03:00:19;7.77;;;7.07;;
6809;SDS011;3443;48.812;9.112;2022-12-07T03:03:03;7.60;;;6.73;;
6809;SDS011;3443;48.812;9.112;2022-12-07T03:08:21;7.63;;;6.93;;
6809;SDS011;3443;48.812;9.112;2022-12-07T03:11:15;7.23;;;6.63;;
6809;SDS011;3443;48.812;9.112;2022-12-07T03:16:36;8.40;;;7.60;;
6809;SDS011;3443;48.812;9.112;2022-12-07T03:19:07;9.53;;;7.47;;
6809;SDS011;3443;48.812;9.112;2022-12-07T03:21:38;8.00;;;7.20;;
6809;SDS011;3443;48.812;9.112;2022-12-07T03:24:12;7.15;;;6.45;;
6809;SDS011;3443;48.812;9.112;2022-12-07T03:26:50;6.85;;;6.25;;
6809;SDS011;3443;48.812;9.112;2022-12-07T03:29:20;8.40;;;7.17;;
6809;SDS011;3443;48.812;9.112;2022-12-07T03:31:58;7.63;;;6.77;;
6809;SDS011;3443;48.812;9.112;2022-12-07T03:34:34;8.43;;;7.63;;
6809;SDS011;3443;48.812;9.112;2022-12-07T03:37:12;9.00;;;7.67;;
6809;SDS011;3443;48.812;9.112;2022-12-07T03:39:54;7.80;;;7.00;;
6809;SDS011;3443;48.812;9.112;2022-12-07T03:42:26;7.77;;;7.07;;
6809;SDS011;3443;48.812;9.112;2022-12-07T03:44:52;9.57;;;7.10;;
6809;SDS011;3443;48.812;9.112;2022-12-07T03:50:14;9.60;;;7.10;;
6809;SDS011;3443;48.812;9.112;2022-12-07T03:52:53;8.63;;;7.27;;
6809;SDS011;3443;48.812;9.112;2022-12-07T03:55:32;6.50;;;5.90;;
6809;SDS011;3443;48.812;9.112;2022-12-07T03:58:02;8.00;;;7.20;;
6809;SDS011;3443;48.812;9.112;2022-12-07T04:00:41;7.33;;;6.73;;
6809;SDS011;3443;48.812;9.112;2022-12-07T04:03:08;7.27;;;6.57;;
6809;SDS011;3443;48.812;9.112;2022-12-07T04:05:35;9.23;;;6.50;;
6809;SDS011;3443;48.812;9.112;2022-12-07T04:08:01;7.43;;;6.70;;
6809;SDS011;3443;48.812;9.112;2022-12-07T04:10:27;8.23;;;6.90;;
6809;SDS011;3443;48.812;9.112;2022-12-07T04:12:52;9.57;;;6.23;;
6809;SDS011;3443;48.812;9.112;2022-12-07T04:15:18;8.00;;;6.57;;
6809;SDS011;3443;48.812;9.112;2022-12-07T04:17:43;7.63;;;6.57;;
6809;SDS011;3443;48.812;9.112;2022-12-07T04:20:09;7.40;;;6.60;;
6809;SDS011;3443;48.812;9.112;2022-12-07T04:22:35;6.97;;;6.27;;
6809;SDS011;3443;48.812;9.112;2022-12-07T04:25:01;6.47;;;5.87;;
6809;SDS011;3443;48.812;9.112;2022-12-07T04:27:26;5.93;;;5.43;;
6809;SDS011;3443;48.812;9.112;2022-12-07T04:29:52;5.60;;;5.13;;
6809;SDS011;3443;48.812;9.112;2022-12-07T04:32:17;4.13;;;3.83;;
6809;SDS011;3443;48.812;9.112;2022-12-07T04:34:43;3.37;;;3.17;;
6809;SDS011;3443;48.812;9.112;2022-12-07T04:37:08;3.60;;;3.40;;
6809;SDS011;3443;48.812;9.112;2022-12-07T04:39:34;3.63;;;3.43;;
6809;SDS011;3443;48.812;9.112;2022-12-07T04:42:00;3.73;;;3.43;;
6809;SDS011;3443;48.812;9.112;2022-12-07T04:44:26;3.67;;;3.37;;
6809;SDS011;3443;48.812;9.112;2022-12-07T04:46:53;3.30;;;3.20;;
6809;SDS011;3443;48.812;9.112;2022-12-07T04:49:20;3.33;;;3.13;;
6809;SDS011;3443;48.812;9.112;2022-12-07T04:51:46;2.80;;;2.70;;
6809;SDS011;3443;48.812;9.112;2022-12-07T04:54:12;2.97;;;2.87;;
6809;SDS011;3443;48.812;9.112;2022-12-07T04:56:39;2.80;;;2.70;;
6809;SDS011;3443;48.812;9.112;2022-12-07T04:59:05;2.93;;;2.73;;
6809;SDS011;3443;48.812;9.112;2022-12-07T05:01:31;3.67;;;3.47;;
6809;SDS011;3443;48.812;9.112;2022-12-07T05:03:57;3.27;;;3.10;;
6809;SDS011;3443;48.812;9.112;2022-12-07T05:06:22;3.40;;;3.20;;
6809;SDS011;3443;48.812;9.112;2022-12-07T05:08:48;3.23;;;3.03;;
6809;SDS011;3443;48.812;9.112;2022-12-07T05:11:14;3.53;;;3.23;;
6809;SDS011;3443;48.812;9.112;2022-12-07T05:14:00;2.97;;;2.77;;
6809;SDS011;3443;48.812;9.112;2022-12-07T05:16:27;3.60;;;3.40;;
6809;SDS011;3443;48.812;9.112;2022-12-07T05:18:53;4.00;;;3.70;;
6809;SDS011;3443;48.812;9.112;2022-12-07T05:21:18;3.90;;;3.70;;
6809;SDS011;3443;48.812;9.112;2022-12-07T05:23:44;4.47;;;4.13;;
6809;SDS011;3443;48.812;9.112;2022-12-07T05:26:10;6.23;;;5.67;;
6809;SDS011;3443;48.812;9.112;2022-12-07T05:28:35;6.43;;;5.77;;
6809;SDS011;3443;48.812;9.112;2022-12-07T05:31:01;6.47;;;5.87;;
6809;SDS011;3443;48.812;9.112;2022-12-07T05:33:27;6.23;;;5.67;;
6809;SDS011;3443;48.812;9.112;2022-12-07T05:35:52;6.03;;;5.53;;
6809;SDS011;3443;48.812;9.112;2022-12-07T05:38:18;5.50;;;5.10;;
6809;SDS011;3443;48.812;9.112;2022-12-07T05:40:43;6.70;;;6.10;;
6809;SDS011;3443;48.812;9.112;2022-12-07T05:43:09;5.97;;;5.47;;
6809;SDS011;3443;48.812;9.112;2022-12-07T05:45:35;5.70;;;5.27;;
6809;SDS011;3443;48.812;9.112;2022-12-07T05:48:01;5.27;;;4.87;;
6809;SDS011;3443;48.812;9.112;2022-12-07T05:50:26;7.00;;;5.90;;
6809;SDS011;3443;48.812;9.112;2022-12-07T05:52:53;6.47;;;4.80;;
6809;SDS011;3443;48.812;9.112;2022-12-07T05:55:18;6.43;;;5.83;;
6809;SDS011;3443;48.812;9.112;2022-12-07T05:57:44;7.23;;;6.57;;
6809;SDS011;3443;48.812;9.112;2022-12-07T06:00:29;6.03;;;5.53;;
6809;SDS011;3443;48.812;9.112;2022-12-07T06:02:55;6.33;;;5.47;;
6809;SDS011;3443;48.812;9.112;2022-12-07T06:05:21;6.03;;;5.53;;
6809;SDS011;3443;48.812;9.112;2022-12-07T06:07:46;5.73;;;5.23;;
6809;SDS011;3443;48.812;9.112;2022-12-07T06:10:12;5.93;;;5.43;;
6809;SDS011;3443;48.812;9.112;2022-12-07T06:12:37;5.60;;;5.10;;
6809;SDS011;3443;48.812;9.112;2022-12-07T06:15:04;7.63;;;5.07;;
6809;SDS011;3443;48.812;9.112;2022-12-07T06:17:30;6.30;;;5.70;;
6809;SDS011;3443;48.812;9.112;2022-12-07T06:19:56;6.07;;;5.43;;
6809;SDS011;3443;48.812;9.112;2022-12-07T06:22:22;5.60;;;5.10;;
6809;SDS011;3443;48.812;9.112;2022-12-07T06:24:47;5.43;;;4.93;;
6809;SDS011;3443;48.812;9.112;2022-12-07T06:27:13;7.13;;;5.80;;
6809;SDS011;3443;48.812;9.112;2022-12-07T06:29:39;6.23;;;5.63;;
6809;SDS011;3443;48.812;9.112;2022-12-07T06:32:04;5.67;;;5.17;;
6809;SDS011;3443;48.812;9.112;2022-12-07T06:34:30;5.80;;;5.37;;
6809;SDS011;3443;48.812;9.112;2022-12-07T06:36:55;5.53;;;5.10;;
6809;SDS011;3443;48.812;9.112;2022-12-07T06:39:22;5.20;;;4.80;;
6809;SDS011;3443;48.812;9.112;2022-12-07T06:41:52;6.17;;;5.10;;
6809;SDS011;3443;48.812;9.112;2022-12-07T06:44:19;6.47;;;4.80;;
6809;SDS011;3443;48.812;9.112;2022-12-07T06:46:45;6.20;;;4.87;;
6809;SDS011;3443;48.812;9.112;2022-12-07T06:49:11;4.90;;;4.50;;
6809;SDS011;3443;48.812;9.112;2022-12-07T06:51:37;5.33;;;4.93;;
6809;SDS011;3443;48.812;9.112;2022-12-07T06:54:06;4.97;;;4.60;;
6809;SDS011;3443;48.812;9.112;2022-12-07T06:56:33;4.97;;;4.57;;
6809;SDS011;3443;48.812;9.112;2022-12-07T06:58:58;5.50;;;4.93;;
6809;SDS011;3443;48.812;9.112;2022-12-07T07:01:24;5.13;;;4.63;;
6809;SDS011;3443;48.812;9.112;2022-12-07T07:03:49;4.53;;;4.13;;
6809;SDS011;3443;48.812;9.112;2022-12-07T07:06:15;4.67;;;4.37;;
6809;SDS011;3443;48.812;9.112;2022-12-07T07:08:40;4.37;;;4.00;;
6809;SDS011;3443;48.812;9.112;2022-12-07T07:11:06;4.97;;;4.57;;
6809;SDS011;3443;48.812;9.112;2022-12-07T07:13:33;4.63;;;4.30;;
6809;SDS011;3443;48.812;9.112;2022-12-07T07:15:59;4.63;;;4.10;;
6809;SDS011;3443;48.812;9.112;2022-12-07T07:18:24;4.27;;;3.87;;
6809;SDS011;3443;48.812;9.112;2022-12-07T07:20:51;4.47;;;4.07;;
6809;SDS011;3443;48.812;9.112;2022-12-07T07:23:17;4.30;;;3.90;;
6809;SDS011;3443;48.812;9.112;2022-12-07T07:25:43;3.50;;;3.23;;
6809;SDS011;3443;48.812;9.112;2022-12-07T07:28:09;4.57;;;3.90;;
6809;SDS011;3443;48.812;9.112;2022-12-07T07:30:35;4.30;;;4.00;;
6809;SDS011;3443;48.812;9.112;2022-12-07T07:33:01;4.03;;;3.73;;
6809;SDS011;3443;48.812;9.112;2022-12-07T07:35:29;3.87;;;3.57;;
6809;SDS011;3443;48.812;9.112;2022-12-07T07:37:55;3.93;;;3.63;;
6809;SDS011;3443;48.812;9.112;2022-12-07T07:40:21;4.37;;;3.97;;
6809;SDS011;3443;48.812;9.112;2022-12-07T07:42:48;4.53;;;4.20;;
6809;SDS011;3443;48.812;9.112;2022-12-07T07:45:15;3.90;;;3.60;;
6809;SDS011;3443;48.812;9.112;2022-12-07T07:47:41;4.10;;;3.60;;
6809;SDS011;3443;48.812;9.112;2022-12-07T07:50:07;4.30;;;4.00;;
6809;SDS011;3443;48.812;9.112;2022-12-07T07:52:32;4.23;;;4.00;;
6809;SDS011;3443;48.812;9.112;2022-12-07T07:54:58;4.50;;;4.10;;
6809;SDS011;3443;48.812;9.112;2022-12-07T07:57:24;4.23;;;3.93;;
6809;SDS011;3443;48.812;9.112;2022-12-07T07:59:49;3.90;;;3.60;;
6809;SDS011;3443;48.812;9.112;2022-12-07T08:02:16;4.10;;;3.80;;
6809;SDS011;3443;48.812;9.112;2022-12-07T08:04:42;4.50;;;3.83;;
6809;SDS011;3443;48.812;9.112;2022-12-07T08:07:08;4.40;;;4.00;;
6809;SDS011;3443;48.812;9.112;2022-12-07T08:09:34;4.43;;;4.13;;
6809;SDS011;3443;48.812;9.112;2022-12-07T08:12:00;5.47;;;4.33;;
6809;SDS011;3443;48.812;9.112;2022-12-07T08:14:25;3.90;;;3.60;;
6809;SDS011;3443;48.812;9.112;2022-12-07T08:16:52;5.13;;;4.17;;
6809;SDS011;3443;48.812;9.112;2022-12-07T08:19:18;6.73;;;3.63;;
6809;SDS011;3443;48.812;9.112;2022-12-07T08:21:43;4.30;;;3.90;;
6809;SDS011;3443;48.812;9.112;2022-12-07T08:24:09;3.63;;;3.33;;
6809;SDS011;3443;48.812;9.112;2022-12-07T08:26:34;5.27;;;4.20;;
6809;SDS011;3443;48.812;9.112;2022-12-07T08:29:01;4.37;;;3.97;;
6809;SDS011;3443;48.812;9.112;2022-12-07T08:31:26;4.03;;;3.63;;
6809;SDS011;3443;48.812;9.112;2022-12-07T08:33:53;4.43;;;4.03;;
6809;SDS011;3443;48.812;9.112;2022-12-07T08:36:19;6.87;;;3.70;;
6809;SDS011;3443;48.812;9.112;2022-12-07T08:38:46;4.13;;;3.83;;
6809;SDS011;3443;48.812;9.112;2022-12-07T08:41:12;4.23;;;3.87;;
6809;SDS011;3443;48.812;9.112;2022-12-07T08:43:37;3.80;;;3.60;;
6809;SDS011;3443;48.812;9.112;2022-12-07T08:48:32;3.70;;;3.40;;
6809;SDS011;3443;48.812;9.112;2022-12-07T08:51:00;3.43;;;3.13;;
6809;SDS011;3443;48.812;9.112;2022-12-07T08:53:26;3.67;;;3.37;;
6809;SDS011;3443;48.812;9.112;2022-12-07T08:55:53;3.53;;;3.23;;
6809;SDS011;3443;48.812;9.112;2022-12-07T08:58:19;3.90;;;3.60;;
6809;SDS011;3443;48.812;9.112;2022-12-07T09:00:44;3.87;;;3.50;;
6809;SDS011;3443;48.812;9.112;2022-12-07T09:03:10;3.63;;;3.43;;
6809;SDS011;3443;48.812;9.112;2022-12-07T09:05:35;4.40;;;3.27;;
6809;SDS011;3443;48.812;9.112;2022-12-07T09:08:01;3.57;;;3.33;;
6809;SDS011;3443;48.812;9.112;2022-12-07T09:10:27;3.70;;;3.40;;
6809;SDS011;3443;48.812;9.112;2022-12-07T09:12:54;4.00;;;3.30;;
6809;SDS011;3443;48.812;9.112;2022-12-07T09:15:19;3.27;;;3.07;;
6809;SDS011;3443;48.812;9.112;2022-12-07T09:17:45;3.70;;;3.40;;
6809;SDS011;3443;48.812;9.112;2022-12-07T09:20:11;3.23;;;3.00;;
6809;SDS011;3443;48.812;9.112;2022-12-07T09:22:37;3.43;;;3.20;;
6809;SDS011;3443;48.812;9.112;2022-12-07T09:25:02;3.58;;;3.28;;
6809;SDS011;3443;48.812;9.112;2022-12-07T09:27:29;3.10;;;2.90;;
6809;SDS011;3443;48.812;9.112;2022-12-07T09:29:55;3.60;;;3.33;;
6809;SDS011;3443;48.812;9.112;2022-12-07T09:32:20;3.00;;;2.80;;
6809;SDS011;3443;48.812;9.112;2022-12-07T09:34:46;4.47;;;2.97;;
6809;SDS011;3443;48.812;9.112;2022-12-07T09:37:12;3.38;;;2.67;;
6809;SDS011;3443;48.812;9.112;2022-12-07T09:39:38;2.97;;;2.78;;
6809;SDS011;3443;48.812;9.112;2022-12-07T09:42:04;2.90;;;2.70;;
6809;SDS011;3443;48.812;9.112;2022-12-07T09:44:30;2.70;;;2.50;;
6809;SDS011;3443;48.812;9.112;2022-12-07T09:46:57;3.60;;;2.90;;
6809;SDS011;3443;48.812;9.112;2022-12-07T09:49:24;3.10;;;2.80;;
6809;SDS011;3443;48.812;9.112;2022-12-07T09:52:03;3.17;;;2.58;;
6809;SDS011;3443;48.812;9.112;2022-12-07T09:54:45;2.90;;;2.70;;
6809;SDS011;3443;48.812;9.112;2022-12-07T09:57:13;2.83;;;2.63;;
6809;SDS011;3443;48.812;9.112;2022-12-07T09:59:39;3.08;;;2.58;;
6809;SDS011;3443;48.812;9.112;2022-12-07T10:02:21;2.88;;;2.75;;
6809;SDS011;3443;48.812;9.112;2022-12-07T10:04:50;2.75;;;2.63;;
6809;SDS011;3443;48.812;9.112;2022-12-07T10:07:16;2.50;;;2.40;;
6809;SDS011;3443;48.812;9.112;2022-12-07T10:09:41;2.92;;;2.72;;
6809;SDS011;3443;48.812;9.112;2022-12-07T10:12:09;3.30;;;3.10;;
6809;SDS011;3443;48.812;9.112;2022-12-07T10:14:38;2.80;;;2.60;;
6809;SDS011;3443;48.812;9.112;2022-12-07T10:22:53;3.30;;;3.10;;
6809;SDS011;3443;48.812;9.112;2022-12-07T10:25:19;3.05;;;2.88;;
6809;SDS011;3443;48.812;9.112;2022-12-07T10:28:00;3.30;;;3.10;;
6809;SDS011;3443;48.812;9.112;2022-12-07T10:30:32;3.53;;;3.28;;
6809;SDS011;3443;48.812;9.112;2022-12-07T10:35:54;3.35;;;3.15;;
6809;SDS011;3443;48.812;9.112;2022-12-07T10:38:20;2.95;;;2.63;;
6809;SDS011;3443;48.812;9.112;2022-12-07T10:40:45;3.17;;;2.72;;
6809;SDS011;3443;48.812;9.112;2022-12-07T10:48:33;2.90;;;2.70;;
6809;SDS011;3443;48.812;9.112;2022-12-07T10:53:57;2.50;;;2.40;;
6809;SDS011;3443;48.812;9.112;2022-12-07T10:56:43;5.63;;;2.00;;
6809;SDS011;3443;48.812;9.112;2022-12-07T11:01:52;2.42;;;1.77;;
6809;SDS011;3443;48.812;9.112;2022-12-07T11:04:47;2.70;;;1.40;;
6809;SDS011;3443;48.812;9.112;2022-12-07T11:10:18;1.55;;;1.30;;
6809;SDS011;3443;48.812;9.112;2022-12-07T11:18:45;1.08;;;1.08;;
6809;SDS011;3443;48.812;9.112;2022-12-07T11:21:30;0.93;;;0.93;;
6809;SDS011;3443;48.812;9.112;2022-12-07T11:24:24;1.33;;;1.33;;
6809;SDS011;3443;48.812;9.112;2022-12-07T11:29:40;1.58;;;1.58;;
6809;SDS011;3443;48.812;9.112;2022-12-07T11:37:59;3.40;;;3.10;;
6809;SDS011;3443;48.812;9.112;2022-12-07T11:40:31;5.32;;;3.35;;
6809;SDS011;3443;48.812;9.112;2022-12-07T11:45:35;4.68;;;3.67;;
6809;SDS011;3443;48.812;9.112;2022-12-07T11:48:15;3.88;;;3.58;;
6809;SDS011;3443;48.812;9.112;2022-12-07T11:50:51;4.10;;;3.80;;
6809;SDS011;3443;48.812;9.112;2022-12-07T11:53:20;3.50;;;3.30;;
6809;SDS011;3443;48.812;9.112;2022-12-07T11:58:42;4.00;;;3.80;;
6809;SDS011;3443;48.812;9.112;2022-12-07T12:06:30;5.47;;;4.50;;
6809;SDS011;3443;48.812;9.112;2022-12-07T12:14:14;5.10;;;4.60;;
6809;SDS011;3443;48.812;9.112;2022-12-07T12:22:37;3.60;;;3.30;;
6809;SDS011;3443;48.812;9.112;2022-12-07T12:25:06;4.28;;;4.00;;
6809;SDS011;3443;48.812;9.112;2022-12-07T12:27:46;3.15;;;2.95;;
6809;SDS011;3443;48.812;9.112;2022-12-07T12:33:29;4.18;;;3.88;;
6809;SDS011;3443;48.812;9.112;2022-12-07T12:46:58;4.07;;;3.78;;
6809;SDS011;3443;48.812;9.112;2022-12-07T12:49:33;4.00;;;3.70;;
6809;SDS011;3443;48.812;9.112;2022-12-07T12:54:38;4.20;;;3.90;;
6809;SDS011;3443;48.812;9.112;2022-12-07T12:57:29;3.97;;;3.57;;
6809;SDS011;3443;48.812;9.112;2022-12-07T12:59:56;4.60;;;3.42;;
6809;SDS011;3443;48.812;9.112;2022-12-07T13:02:36;3.90;;;3.70;;
6809;SDS011;3443;48.812;9.112;2022-12-07T13:18:21;4.20;;;3.90;;
6809;SDS011;3443;48.812;9.112;2022-12-07T13:28:48;7.43;;;4.15;;
6809;SDS011;3443;48.812;9.112;2022-12-07T13:34:32;4.25;;;3.85;;
6809;SDS011;3443;48.812;9.112;2022-12-07T13:37:02;4.18;;;3.88;;
6809;SDS011;3443;48.812;9.112;2022-12-07T13:39:45;4.45;;;4.05;;
6809;SDS011;3443;48.812;9.112;2022-12-07T13:42:26;5.72;;;4.30;;
6809;SDS011;3443;48.812;9.112;2022-12-07T13:44:57;5.47;;;4.97;;
6809;SDS011;3443;48.812;9.112;2022-12-07T13:47:33;4.05;;;3.75;;
6809;SDS011;3443;48.812;9.112;2022-12-07T13:52:56;5.00;;;4.60;;
6809;SDS011;3443;48.812;9.112;2022-12-07T13:55:22;4.57;;;4.15;;
6809;SDS011;3443;48.812;9.112;2022-12-07T13:57:49;5.85;;;4.80;;
6809;SDS011;3443;48.812;9.112;2022-12-07T14:07:58;4.63;;;4.22;;
6809;SDS011;3443;48.812;9.112;2022-12-07T14:13:26;4.35;;;3.95;;
6809;SDS011;3443;48.812;9.112;2022-12-07T14:15:55;5.05;;;4.65;;
6809;SDS011;3443;48.812;9.112;2022-12-07T14:23:37;6.05;;;4.63;;
6809;SDS011;3443;48.812;9.112;2022-12-07T14:28:36;5.30;;;4.80;;
6809;SDS011;3443;48.812;9.112;2022-12-07T14:31:02;6.15;;;5.03;;
6809;SDS011;3443;48.812;9.112;2022-12-07T14:33:33;5.38;;;4.88;;
6809;SDS011;3443;48.812;9.112;2022-12-07T14:35:58;6.78;;;4.65;;
6809;SDS011;3443;48.812;9.112;2022-12-07T14:38:24;7.03;;;4.57;;
6809;SDS011;3443;48.812;9.112;2022-12-07T14:40:51;5.00;;;4.30;;
6809;SDS011;3443;48.812;9.112;2022-12-07T14:43:17;6.88;;;4.90;;
6809;SDS011;3443;48.812;9.112;2022-12-07T14:45:44;4.47;;;4.15;;
6809;SDS011;3443;48.812;9.112;2022-12-07T14:48:11;4.88;;;4.38;;
6809;SDS011;3443;48.812;9.112;2022-12-07T14:50:39;5.18;;;4.78;;
6809;SDS011;3443;48.812;9.112;2022-12-07T14:53:15;5.03;;;4.57;;
6809;SDS011;3443;48.812;9.112;2022-12-07T14:55:42;5.93;;;4.57;;
6809;SDS011;3443;48.812;9.112;2022-12-07T14:58:17;6.20;;;4.38;;
6809;SDS011;3443;48.812;9.112;2022-12-07T15:00:43;5.27;;;4.57;;
6809;SDS011;3443;48.812;9.112;2022-12-07T15:03:09;3.70;;;3.40;;
6809;SDS011;3443;48.812;9.112;2022-12-07T15:05:35;3.90;;;3.63;;
6809;SDS011;3443;48.812;9.112;2022-12-07T15:08:02;4.82;;;3.60;;
6809;SDS011;3443;48.812;9.112;2022-12-07T15:10:29;3.95;;;3.55;;
6809;SDS011;3443;48.812;9.112;2022-12-07T15:13:00;4.10;;;3.70;;
6809;SDS011;3443;48.812;9.112;2022-12-07T15:15:49;4.28;;;3.97;;
6809;SDS011;3443;48.812;9.112;2022-12-07T15:18:17;4.63;;;4.23;;
6809;SDS011;3443;48.812;9.112;2022-12-07T15:20:43;4.70;;;4.30;;
6809;SDS011;3443;48.812;9.112;2022-12-07T15:23:09;5.10;;;4.60;;
6809;SDS011;3443;48.812;9.112;2022-12-07T15:25:36;4.53;;;4.13;;
6809;SDS011;3443;48.812;9.112;2022-12-07T15:28:01;4.80;;;4.40;;
6809;SDS011;3443;48.812;9.112;2022-12-07T15:30:27;5.07;;;4.67;;
6809;SDS011;3443;48.812;9.112;2022-12-07T15:32:53;4.83;;;4.40;;
6809;SDS011;3443;48.812;9.112;2022-12-07T15:35:19;6.27;;;4.50;;
6809;SDS011;3443;48.812;9.112;2022-12-07T15:37:45;5.93;;;5.40;;
6809;SDS011;3443;48.812;9.112;2022-12-07T15:40:11;6.13;;;5.53;;
6809;SDS011;3443;48.812;9.112;2022-12-07T15:42:37;5.27;;;4.77;;
6809;SDS011;3443;48.812;9.112;2022-12-07T15:45:03;6.67;;;5.97;;
6809;SDS011;3443;48.812;9.112;2022-12-07T15:47:31;8.87;;;6.90;;
6809;SDS011;3443;48.812;9.112;2022-12-07T15:50:09;8.52;;;7.43;;
6809;SDS011;3443;48.812;9.112;2022-12-07T15:52:37;10.33;;;7.60;;
6809;SDS011;3443;48.812;9.112;2022-12-07T15:55:03;8.70;;;7.37;;
6809;SDS011;3443;48.812;9.112;2022-12-07T15:57:29;8.40;;;6.77;;
6809;SDS011;3443;48.812;9.112;2022-12-07T15:59:56;8.83;;;6.90;;
6809;SDS011;3443;48.812;9.112;2022-12-07T16:02:21;7.60;;;6.83;;
6809;SDS011;3443;48.812;9.112;2022-12-07T16:04:50;8.53;;;7.73;;
6809;SDS011;3443;48.812;9.112;2022-12-07T16:07:16;7.90;;;7.10;;
6809;SDS011;3443;48.812;9.112;2022-12-07T16:09:43;11.63;;;9.60;;
6809;SDS011;3443;48.812;9.112;2022-12-07T16:12:10;12.43;;;7.90;;
6809;SDS011;3443;48.812;9.112;2022-12-07T16:14:37;8.57;;;7.73;;
6809;SDS011;3443;48.812;9.112;2022-12-07T16:17:03;9.67;;;7.97;;
6809;SDS011;3443;48.812;9.112;2022-12-07T16:19:30;9.50;;;7.77;;
6809;SDS011;3443;48.812;9.112;2022-12-07T16:21:56;10.13;;;7.97;;
6809;SDS011;3443;48.812;9.112;2022-12-07T16:24:22;8.20;;;7.40;;
6809;SDS011;3443;48.812;9.112;2022-12-07T16:26:47;10.60;;;8.70;;
6809;SDS011;3443;48.812;9.112;2022-12-07T16:29:14;9.40;;;8.23;;
6809;SDS011;3443;48.812;9.112;2022-12-07T16:31:39;10.07;;;8.57;;
6809;SDS011;3443;48.812;9.112;2022-12-07T16:34:05;13.67;;;11.80;;
6809;SDS011;3443;48.812;9.112;2022-12-07T16:36:31;27.53;;;21.90;;
6809;SDS011;3443;48.812;9.112;2022-12-07T16:39:00;14.13;;;10.43;;
6809;SDS011;3443;48.812;9.112;2022-12-07T16:41:26;14.13;;;10.50;;
6809;SDS011;3443;48.812;9.112;2022-12-07T16:43:51;12.00;;;9.47;;
6809;SDS011;3443;48.812;9.112;2022-12-07T16:46:17;13.90;;;8.93;;
6809;SDS011;3443;48.812;9.112;2022-12-07T16:48:43;10.73;;;9.30;;
6809;SDS011;3443;48.812;9.112;2022-12-07T16:51:10;10.73;;;8.73;;
6809;SDS011;3443;48.812;9.112;2022-12-07T16:53:38;11.33;;;8.87;;
6809;SDS011;3443;48.812;9.112;2022-12-07T16:56:09;9.80;;;8.80;;
6809;SDS011;3443;48.812;9.112;2022-12-07T16:58:40;10.57;;;8.83;;
6809;SDS011;3443;48.812;9.112;2022-12-07T17:01:19;11.37;;;9.03;;
6809;SDS011;3443;48.812;9.112;2022-12-07T17:03:47;9.93;;;8.93;;
6809;SDS011;3443;48.812;9.112;2022-12-07T17:06:14;12.93;;;9.90;;
6809;SDS011;3443;48.812;9.112;2022-12-07T17:08:45;11.83;;;9.23;;
6809;SDS011;3443;48.812;9.112;2022-12-07T17:11:15;9.77;;;8.27;;
6809;SDS011;3443;48.812;9.112;2022-12-07T17:13:42;9.93;;;8.40;;
6809;SDS011;3443;48.812;9.112;2022-12-07T17:16:27;10.57;;;8.97;;
6809;SDS011;3443;48.812;9.112;2022-12-07T17:18:53;10.00;;;8.67;;
6809;SDS011;3443;48.812;9.112;2022-12-07T17:21:19;9.40;;;8.50;;
6809;SDS011;3443;48.812;9.112;2022-12-07T17:23:45;9.23;;;8.23;;
6809;SDS011;3443;48.812;9.112;2022-12-07T17:26:13;10.90;;;9.00;;
6809;SDS011;3443;48.812;9.112;2022-12-07T17:28:41;11.87;;;8.27;;
6809;SDS011;3443;48.812;9.112;2022-12-07T17:31:09;9.90;;;8.90;;
6809;SDS011;3443;48.812;9.112;2022-12-07T17:33:36;10.50;;;8.60;;
6809;SDS011;3443;48.812;9.112;2022-12-07T17:36:11;9.97;;;8.37;;
6809;SDS011;3443;48.812;9.112;2022-12-07T17:38:39;9.40;;;8.40;;
6809;SDS011;3443;48.812;9.112;2022-12-07T17:41:10;11.90;;;9.43;;
6809;SDS011;3443;48.812;9.112;2022-12-07T17:43:37;13.60;;;9.90;;
6809;SDS011;3443;48.812;9.112;2022-12-07T17:46:09;14.30;;;11.37;;
6809;SDS011;3443;48.812;9.112;2022-12-07T17:48:35;12.80;;;10.27;;